createdAt,value
2017-12-13T00:00:36.128Z,12.70
2017-12-13T00:03:04.373Z,12.80
2017-12-13T00:05:32.892Z,12.70
2017-12-13T00:08:01.147Z,12.70
2017-12-13T00:10:29.384Z,12.70
2017-12-13T00:12:58.021Z,12.70
2017-12-13T00:15:26.293Z,12.70
2017-12-13T00:17:54.520Z,12.60
2017-12-13T00:20:22.760Z,12.60
2017-12-13T00:22:51.024Z,12.60
2017-12-13T00:25:19.259Z,12.60
2017-12-13T00:27:48.251Z,12.60
2017-12-13T00:30:16.526Z,12.60
2017-12-13T00:32:44.756Z,12.60
2017-12-13T00:35:12.987Z,12.60
2017-12-13T00:37:41.279Z,12.60
2017-12-13T00:40:09.513Z,12.50
2017-12-13T00:42:38.160Z,12.50
2017-12-13T00:45:06.459Z,12.50
2017-12-13T00:47:35.083Z,12.50
2017-12-13T00:50:04.751Z,12.50
2017-12-13T00:52:34.122Z,12.50
2017-12-13T00:55:02.772Z,12.50
2017-12-13T00:57:31.011Z,12.50
2017-12-13T00:59:59.269Z,12.50
2017-12-13T01:02:27.512Z,12.50
2017-12-13T01:04:55.833Z,12.50
2017-12-13T01:07:24.967Z,12.50
2017-12-13T01:09:54.656Z,12.40
2017-12-13T01:12:23.299Z,12.40
2017-12-13T01:14:51.592Z,12.40
2017-12-13T01:17:19.831Z,12.40
2017-12-13T01:19:48.922Z,12.40
2017-12-13T01:22:17.240Z,12.40
2017-12-13T01:24:45.471Z,12.40
2017-12-13T01:27:13.704Z,12.40
2017-12-13T01:29:42.719Z,12.40
2017-12-13T01:32:11.356Z,12.40
2017-12-13T01:34:40.355Z,12.40
2017-12-13T01:37:09.019Z,12.30
2017-12-13T01:39:37.320Z,12.30
2017-12-13T01:42:05.544Z,12.30
2017-12-13T01:44:33.954Z,12.30
2017-12-13T01:47:02.180Z,12.30
2017-12-13T01:49:30.807Z,12.30
2017-12-13T01:51:59.091Z,12.30
2017-12-13T01:54:27.329Z,12.30
2017-12-13T01:56:55.569Z,12.30
2017-12-13T01:59:23.822Z,12.30
2017-12-13T02:01:52.048Z,12.30
2017-12-13T02:04:20.682Z,12.30
2017-12-13T02:06:48.936Z,12.30
2017-12-13T02:09:17.171Z,12.30
2017-12-13T02:11:45.813Z,12.30
2017-12-13T02:14:14.493Z,12.30
2017-12-13T02:16:42.723Z,12.30
2017-12-13T02:19:10.964Z,12.30
2017-12-13T02:21:39.548Z,12.30
2017-12-13T02:24:07.779Z,12.30
2017-12-13T02:26:36.013Z,12.20
2017-12-13T02:29:04.275Z,12.20
2017-12-13T02:31:32.505Z,12.20
2017-12-13T02:34:00.741Z,12.20
2017-12-13T02:36:29.985Z,12.20
2017-12-13T02:38:58.500Z,12.20
2017-12-13T02:41:26.747Z,12.20
2017-12-13T02:43:55.011Z,12.20
2017-12-13T02:46:23.249Z,12.20
2017-12-13T02:48:51.880Z,12.20
2017-12-13T02:51:20.160Z,12.20
2017-12-13T02:53:48.382Z,12.10
2017-12-13T02:56:16.619Z,12.10
2017-12-13T02:58:44.873Z,12.10
2017-12-13T03:01:13.103Z,12.10
2017-12-13T03:03:41.340Z,12.10
2017-12-13T03:06:09.620Z,12.10
2017-12-13T03:08:37.852Z,12.10
2017-12-13T03:11:06.490Z,12.10
2017-12-13T03:13:34.734Z,12.10
2017-12-13T03:16:03.205Z,12.10
2017-12-13T03:18:31.446Z,12.10
2017-12-13T03:21:01.345Z,12.10
2017-12-13T03:23:29.587Z,12.10
2017-12-13T03:25:57.827Z,12.10
2017-12-13T03:28:26.487Z,12.00
2017-12-13T03:30:55.881Z,12.10
2017-12-13T03:33:24.115Z,12.00
2017-12-13T03:35:52.372Z,12.00
2017-12-13T03:38:20.608Z,12.00
2017-12-13T03:40:48.854Z,12.00
2017-12-13T03:43:17.093Z,12.00
2017-12-13T03:45:45.716Z,12.00
2017-12-13T03:48:14.223Z,12.00
2017-12-13T03:50:42.488Z,12.00
2017-12-13T03:53:10.768Z,12.00
2017-12-13T03:55:38.984Z,12.00
2017-12-13T03:58:07.939Z,12.00
2017-12-13T04:00:36.212Z,12.00
2017-12-13T04:03:04.451Z,12.00
2017-12-13T04:05:32.707Z,11.90
2017-12-13T04:08:01.344Z,11.90
2017-12-13T04:10:29.580Z,11.90
2017-12-13T04:12:57.872Z,11.90
2017-12-13T04:15:26.096Z,11.90
2017-12-13T04:17:54.326Z,11.90
2017-12-13T04:20:22.685Z,11.90
2017-12-13T04:22:50.928Z,11.80
2017-12-13T04:25:19.158Z,11.80
2017-12-13T04:27:47.419Z,11.80
2017-12-13T04:30:15.664Z,11.80
2017-12-13T04:32:44.404Z,11.80
2017-12-13T04:35:12.668Z,11.80
2017-12-13T04:37:40.903Z,11.80
2017-12-13T04:40:09.528Z,11.80
2017-12-13T04:42:37.800Z,11.80
2017-12-13T04:45:06.049Z,11.80
2017-12-13T04:47:34.286Z,11.70
2017-12-13T04:50:02.532Z,11.70
2017-12-13T04:52:30.827Z,11.70
2017-12-13T04:54:59.314Z,11.70
2017-12-13T04:57:27.559Z,11.70
2017-12-13T04:59:55.840Z,11.70
2017-12-13T05:02:25.080Z,11.70
2017-12-13T05:04:53.315Z,11.70
2017-12-13T05:07:21.590Z,11.70
2017-12-13T05:09:49.828Z,11.60
2017-12-13T05:12:18.451Z,11.60
2017-12-13T05:14:46.728Z,11.60
2017-12-13T05:17:14.964Z,11.60
2017-12-13T05:19:43.595Z,11.60
2017-12-13T05:22:12.704Z,11.60
2017-12-13T05:24:41.377Z,11.60
2017-12-13T05:27:09.872Z,11.60
2017-12-13T05:29:38.150Z,11.60
2017-12-13T05:32:06.400Z,11.60
2017-12-13T05:34:34.633Z,11.60
2017-12-13T05:37:02.951Z,11.50
2017-12-13T05:39:31.228Z,11.50
2017-12-13T05:41:59.467Z,11.50
2017-12-13T05:44:27.729Z,11.50
2017-12-13T05:46:56.354Z,11.50
2017-12-13T05:49:24.600Z,11.50
2017-12-13T05:51:53.258Z,11.50
2017-12-13T05:54:21.497Z,11.50
2017-12-13T05:56:49.803Z,11.50
2017-12-13T05:59:18.542Z,11.50
2017-12-13T06:01:46.776Z,11.50
2017-12-13T06:04:16.600Z,11.50
2017-12-13T06:06:45.234Z,11.50
2017-12-13T06:09:13.468Z,11.50
2017-12-13T06:11:42.133Z,11.40
2017-12-13T06:14:10.402Z,11.40
2017-12-13T06:16:38.625Z,11.40
2017-12-13T06:19:06.898Z,11.40
2017-12-13T06:21:35.127Z,11.40
2017-12-13T06:24:03.426Z,11.40
2017-12-13T06:26:32.072Z,11.40
2017-12-13T06:29:00.308Z,11.40
2017-12-13T06:31:28.548Z,11.40
2017-12-13T06:33:56.820Z,11.40
2017-12-13T06:36:25.060Z,11.40
2017-12-13T06:38:53.305Z,11.40
2017-12-13T06:41:21.840Z,11.40
2017-12-13T06:43:50.083Z,11.40
2017-12-13T06:46:18.346Z,11.40
2017-12-13T06:48:46.612Z,11.40
2017-12-13T06:51:14.860Z,11.30
2017-12-13T06:53:43.085Z,11.30
2017-12-13T06:56:11.343Z,11.30
2017-12-13T06:58:39.580Z,11.30
2017-12-13T07:01:07.864Z,11.30
2017-12-13T07:03:36.540Z,11.30
2017-12-13T07:06:04.777Z,11.30
2017-12-13T07:08:33.022Z,11.30
2017-12-13T07:11:01.701Z,11.30
2017-12-13T07:13:30.372Z,11.30
2017-12-13T07:15:59.020Z,11.30
2017-12-13T07:18:27.269Z,11.30
2017-12-13T07:20:55.508Z,11.30
2017-12-13T07:23:23.771Z,8.40
2017-12-13T07:25:52.052Z,7.70
2017-12-13T07:28:20.283Z,7.90
2017-12-13T07:30:48.516Z,8.30
2017-12-13T07:33:16.828Z,8.70
2017-12-13T07:35:45.068Z,9.10
2017-12-13T07:38:13.880Z,9.60
2017-12-13T07:40:42.171Z,9.60
2017-12-13T07:43:10.593Z,9.90
2017-12-13T07:45:38.868Z,10.00
2017-12-13T07:48:07.111Z,10.20
2017-12-13T07:50:35.392Z,10.40
2017-12-13T07:53:03.701Z,10.50
2017-12-13T07:55:32.005Z,10.60
2017-12-13T07:58:00.625Z,10.90
2017-12-13T08:00:28.887Z,10.90
2017-12-13T08:02:57.155Z,11.00
2017-12-13T08:05:25.400Z,11.00
2017-12-13T08:07:54.069Z,11.20
2017-12-13T08:10:22.304Z,11.20
2017-12-13T08:12:50.540Z,11.20
2017-12-13T08:15:20.528Z,11.30
2017-12-13T08:17:48.764Z,11.30
2017-12-13T08:20:17.049Z,11.40
2017-12-13T08:22:45.288Z,11.40
2017-12-13T08:25:13.933Z,11.80
2017-12-13T08:27:42.242Z,11.80
2017-12-13T08:30:10.876Z,12.70
2017-12-13T08:32:39.115Z,12.70
2017-12-13T08:35:07.776Z,14.00
2017-12-13T08:37:36.011Z,14.00
2017-12-13T08:40:04.296Z,14.60
2017-12-13T08:42:32.565Z,15.20
2017-12-13T08:45:00.798Z,15.80
2017-12-13T08:47:29.432Z,16.90
2017-12-13T08:49:57.676Z,17.00
2017-12-13T08:52:25.913Z,17.40
2017-12-13T08:54:54.564Z,18.30
2017-12-13T08:57:23.160Z,18.30
2017-12-13T08:59:51.385Z,18.70
2017-12-13T09:02:20.025Z,19.60
2017-12-13T09:04:48.660Z,19.60
2017-12-13T09:07:17.308Z,20.70
2017-12-13T09:09:46.360Z,20.70
2017-12-13T09:12:14.657Z,21.20
2017-12-13T09:14:43.816Z,21.60
2017-12-13T09:17:12.092Z,22.00
2017-12-13T09:19:40.332Z,22.20
2017-12-13T09:22:08.580Z,22.20
2017-12-13T09:24:36.864Z,22.20
2017-12-13T09:27:05.303Z,22.20
2017-12-13T09:29:33.533Z,22.20
2017-12-13T09:32:01.777Z,22.20
2017-12-13T09:34:30.012Z,22.20
2017-12-13T09:36:58.249Z,22.30
2017-12-13T09:39:26.497Z,22.40
2017-12-13T09:41:54.741Z,22.60
2017-12-13T09:44:22.993Z,22.70
2017-12-13T09:46:51.425Z,22.90
2017-12-13T09:49:19.668Z,23.10
2017-12-13T09:51:48.297Z,23.50
2017-12-13T09:54:16.682Z,23.60
2017-12-13T09:56:44.959Z,23.80
2017-12-13T09:59:13.181Z,24.00
2017-12-13T10:01:41.457Z,24.30
2017-12-13T10:04:09.692Z,24.50
2017-12-13T10:06:38.536Z,24.60
2017-12-13T10:09:06.808Z,24.70
2017-12-13T10:11:35.047Z,24.70
2017-12-13T10:14:03.895Z,24.70
2017-12-13T10:16:32.192Z,24.70
2017-12-13T10:19:00.442Z,24.60
2017-12-13T10:21:28.674Z,24.50
2017-12-13T10:23:57.476Z,24.50
2017-12-13T10:26:26.682Z,24.50
2017-12-13T10:28:54.932Z,24.50
2017-12-13T10:31:23.282Z,24.60
2017-12-13T10:33:51.513Z,24.80
2017-12-13T10:36:20.043Z,25.00
2017-12-13T10:38:48.525Z,25.10
2017-12-13T10:41:16.761Z,25.30
2017-12-13T10:43:45.031Z,25.40
2017-12-13T10:46:13.260Z,25.40
2017-12-13T10:48:41.498Z,25.30
2017-12-13T10:51:09.764Z,25.20
2017-12-13T10:53:38.007Z,25.10
2017-12-13T10:56:06.650Z,24.90
2017-12-13T10:58:35.969Z,24.90
2017-12-13T11:01:04.204Z,24.80
2017-12-13T11:03:32.440Z,24.70
2017-12-13T11:06:01.112Z,24.80
2017-12-13T11:08:29.752Z,24.70
2017-12-13T11:10:57.988Z,24.70
2017-12-13T11:13:26.628Z,24.80
2017-12-13T11:15:55.321Z,24.80
2017-12-13T11:18:23.567Z,24.90
2017-12-13T11:20:51.797Z,25.00
2017-12-13T11:23:20.260Z,25.20
2017-12-13T11:25:48.630Z,25.40
2017-12-13T11:28:16.849Z,25.70
2017-12-13T11:30:45.478Z,26.30
2017-12-13T11:33:13.753Z,26.30
2017-12-13T11:35:42.016Z,26.50
2017-12-13T11:38:10.319Z,26.70
2017-12-13T11:40:38.551Z,26.90
2017-12-13T11:43:06.802Z,27.10
2017-12-13T11:45:35.440Z,27.60
2017-12-13T11:48:03.733Z,27.60
2017-12-13T11:50:31.960Z,27.80
2017-12-13T11:53:00.204Z,27.90
2017-12-13T11:55:28.458Z,27.90
2017-12-13T11:57:57.158Z,27.80
2017-12-13T12:00:26.132Z,27.80
2017-12-13T12:02:54.380Z,27.80
2017-12-13T12:05:22.655Z,27.70
2017-12-13T12:07:51.741Z,27.60
2017-12-13T12:10:19.983Z,27.50
2017-12-13T12:12:49.253Z,27.50
2017-12-13T12:15:17.544Z,27.40
2017-12-13T12:17:46.209Z,27.10
2017-12-13T12:20:14.461Z,27.20
2017-12-13T12:22:42.749Z,26.90
2017-12-13T12:25:13.147Z,26.50
2017-12-13T12:27:42.098Z,26.40
2017-12-13T12:30:11.323Z,26.40
2017-12-13T12:32:39.906Z,26.30
2017-12-13T12:35:09.277Z,26.10
2017-12-13T12:37:37.532Z,26.10
2017-12-13T12:40:05.759Z,26.00
2017-12-13T12:42:34.023Z,25.90
2017-12-13T12:45:02.255Z,25.80
2017-12-13T12:47:30.492Z,25.80
2017-12-13T12:49:59.235Z,26.00
2017-12-13T12:52:27.447Z,26.00
2017-12-13T12:54:56.139Z,26.20
2017-12-13T12:57:24.381Z,26.20
2017-12-13T12:59:52.629Z,26.20
2017-12-13T13:02:20.892Z,26.20
2017-12-13T13:04:50.127Z,26.10
2017-12-13T13:07:18.373Z,26.10
2017-12-13T13:09:46.650Z,26.20
2017-12-13T13:12:14.923Z,26.10
2017-12-13T13:14:43.857Z,26.10
2017-12-13T13:17:12.572Z,25.70
2017-12-13T13:19:40.808Z,25.70
2017-12-13T13:22:09.040Z,25.50
2017-12-13T13:24:37.296Z,25.30
2017-12-13T13:27:05.913Z,24.90
2017-12-13T13:29:34.157Z,24.90
2017-12-13T13:32:02.812Z,24.50
2017-12-13T13:34:31.066Z,24.50
2017-12-13T13:36:59.303Z,24.20
2017-12-13T13:39:27.563Z,23.90
2017-12-13T13:41:56.187Z,23.40
2017-12-13T13:44:24.417Z,23.40
2017-12-13T13:46:53.064Z,23.00
2017-12-13T13:49:21.303Z,23.00
2017-12-13T13:51:51.097Z,22.80
2017-12-13T13:54:19.727Z,22.50
2017-12-13T13:56:47.980Z,22.50
2017-12-13T13:59:16.256Z,22.20
2017-12-13T14:01:44.497Z,22.00
2017-12-13T14:04:14.117Z,21.50
2017-12-13T14:06:42.791Z,21.30
2017-12-13T14:09:11.424Z,21.10
2017-12-13T14:11:39.661Z,21.10
2017-12-13T14:14:08.399Z,20.70
2017-12-13T14:16:36.621Z,20.70
2017-12-13T14:19:04.876Z,20.60
2017-12-13T14:21:33.157Z,20.50
2017-12-13T14:24:01.787Z,20.20
2017-12-13T14:26:30.024Z,20.20
2017-12-13T14:28:58.672Z,19.80
2017-12-13T14:31:26.924Z,19.80
2017-12-13T14:33:55.156Z,19.70
2017-12-13T14:36:23.821Z,19.40
2017-12-13T14:38:52.058Z,19.40
2017-12-13T14:41:20.307Z,19.20
2017-12-13T14:43:48.541Z,19.00
2017-12-13T14:46:16.781Z,18.90
2017-12-13T14:48:45.074Z,18.70
2017-12-13T14:51:13.329Z,18.60
2017-12-13T14:53:41.571Z,18.50
2017-12-13T14:56:10.232Z,18.20
2017-12-13T14:58:38.480Z,18.20
2017-12-13T15:01:06.769Z,18.10
2017-12-13T15:03:35.041Z,17.90
2017-12-13T15:06:03.332Z,17.80
2017-12-13T15:08:31.580Z,17.70
2017-12-13T15:10:59.827Z,17.60
2017-12-13T15:13:28.101Z,17.50
2017-12-13T15:15:56.436Z,17.40
2017-12-13T15:18:24.917Z,17.30
2017-12-13T15:20:53.182Z,17.20
2017-12-13T15:23:21.448Z,17.10
2017-12-13T15:25:49.954Z,17.00
2017-12-13T15:28:18.229Z,17.00
2017-12-13T15:30:46.500Z,16.90
2017-12-13T15:33:14.742Z,16.80
2017-12-13T15:35:42.998Z,16.80
2017-12-13T15:38:11.651Z,16.60
2017-12-13T15:40:39.941Z,16.60
2017-12-13T15:43:08.169Z,16.60
2017-12-13T15:45:36.465Z,16.50
2017-12-13T15:48:04.708Z,16.40
2017-12-13T15:50:32.980Z,16.40
2017-12-13T15:53:01.274Z,16.30
2017-12-13T15:55:29.559Z,16.30
2017-12-13T15:57:57.804Z,16.20
2017-12-13T16:00:26.087Z,16.20
2017-12-13T16:02:54.402Z,16.10
2017-12-13T16:05:22.654Z,16.10
2017-12-13T16:07:50.913Z,16.00
2017-12-13T16:10:19.232Z,16.00
2017-12-13T16:12:47.723Z,15.90
2017-12-13T16:15:18.947Z,15.90
2017-12-13T16:17:47.540Z,15.80
2017-12-13T16:20:16.022Z,15.80
2017-12-13T16:22:44.270Z,15.80
2017-12-13T16:25:12.588Z,15.70
2017-12-13T16:27:40.839Z,15.70
2017-12-13T16:30:10.144Z,15.60
2017-12-13T16:32:38.390Z,15.60
2017-12-13T16:35:06.620Z,15.60
2017-12-13T16:37:35.262Z,15.50
2017-12-13T16:40:03.533Z,15.50
2017-12-13T16:42:31.802Z,15.50
2017-12-13T16:45:00.073Z,15.40
2017-12-13T16:47:28.312Z,15.40
2017-12-13T16:49:56.608Z,15.40
2017-12-13T16:52:24.848Z,15.30
2017-12-13T16:54:53.098Z,15.30
2017-12-13T16:57:21.361Z,15.30
2017-12-13T16:59:50.428Z,15.20
2017-12-13T17:02:18.710Z,15.20
2017-12-13T17:04:46.948Z,15.20
2017-12-13T17:07:15.300Z,15.20
2017-12-13T17:09:43.549Z,15.10
2017-12-13T17:12:11.787Z,15.10
2017-12-13T17:14:40.423Z,15.10
2017-12-13T17:17:08.689Z,15.00
2017-12-13T17:19:36.926Z,15.00
2017-12-13T17:22:05.552Z,15.00
2017-12-13T17:24:33.817Z,15.00
2017-12-13T17:27:02.068Z,15.00
2017-12-13T17:29:30.924Z,14.90
2017-12-13T17:31:59.165Z,14.90
2017-12-13T17:34:27.419Z,14.90
2017-12-13T17:36:55.666Z,14.90
2017-12-13T17:39:23.912Z,14.90
2017-12-13T17:41:52.152Z,14.80
2017-12-13T17:44:20.397Z,14.80
2017-12-13T17:46:49.034Z,14.70
2017-12-13T17:49:17.317Z,14.70
2017-12-13T17:51:45.548Z,14.70
2017-12-13T17:54:14.297Z,14.60
2017-12-13T17:56:42.567Z,14.60
2017-12-13T17:59:10.944Z,14.60
2017-12-13T18:01:39.164Z,14.60
2017-12-13T18:04:07.423Z,14.50
2017-12-13T18:06:36.077Z,14.50
2017-12-13T18:09:05.392Z,14.50
2017-12-13T18:11:33.663Z,14.40
2017-12-13T18:14:02.140Z,14.40
2017-12-13T18:16:30.409Z,14.40
2017-12-13T18:18:58.700Z,14.40
2017-12-13T18:21:27.348Z,14.30
2017-12-13T18:23:55.580Z,14.30
2017-12-13T18:26:24.313Z,14.30
2017-12-13T18:28:52.524Z,14.30
2017-12-13T18:31:20.760Z,14.30
2017-12-13T18:33:49.003Z,14.30
2017-12-13T18:36:17.249Z,14.20
2017-12-13T18:38:46.231Z,14.20
2017-12-13T18:41:14.532Z,14.20
2017-12-13T18:43:43.191Z,14.20
2017-12-13T18:46:11.438Z,14.10
2017-12-13T18:48:39.753Z,14.10
2017-12-13T18:51:08.014Z,14.10
2017-12-13T18:53:36.256Z,14.10
2017-12-13T18:56:04.509Z,14.10
2017-12-13T18:58:33.140Z,14.00
2017-12-13T19:01:01.383Z,14.00
2017-12-13T19:03:29.636Z,14.00
2017-12-13T19:05:58.268Z,14.00
2017-12-13T19:08:26.504Z,14.00
2017-12-13T19:10:56.036Z,13.90
2017-12-13T19:13:24.755Z,13.90
2017-12-13T19:15:53.035Z,13.90
2017-12-13T19:18:21.732Z,13.90
2017-12-13T19:20:49.982Z,13.90
2017-12-13T19:23:18.276Z,13.90
2017-12-13T19:25:46.520Z,13.80
2017-12-13T19:28:14.769Z,13.80
2017-12-13T19:30:43.030Z,13.80
2017-12-13T19:33:11.660Z,13.80
2017-12-13T19:35:39.901Z,13.80
2017-12-13T19:38:08.180Z,13.70
2017-12-13T19:40:36.421Z,13.70
2017-12-13T19:46:09.588Z,13.70
2017-12-13T19:48:38.524Z,13.70
2017-12-13T19:51:06.760Z,13.70
2017-12-13T19:53:35.161Z,13.60
2017-12-13T19:56:03.526Z,13.60
2017-12-13T19:58:31.760Z,13.60
2017-12-13T20:01:00.012Z,13.60
2017-12-13T20:03:28.674Z,13.60
2017-12-13T20:05:56.908Z,13.50
2017-12-13T20:08:25.761Z,13.50
2017-12-13T20:10:54.114Z,13.50
2017-12-13T20:13:22.368Z,13.50
2017-12-13T20:15:50.631Z,13.50
2017-12-13T20:18:18.960Z,13.50
2017-12-13T20:20:47.320Z,13.50
2017-12-13T20:23:15.553Z,13.50
2017-12-13T20:25:43.843Z,13.40
2017-12-13T20:28:12.084Z,13.40
2017-12-13T20:30:40.735Z,13.40
2017-12-13T20:33:09.392Z,13.40
2017-12-13T20:35:37.650Z,13.40
2017-12-13T20:38:05.917Z,13.40
2017-12-13T20:40:35.001Z,13.40
2017-12-13T20:43:03.280Z,13.40
2017-12-13T20:45:32.899Z,13.30
2017-12-13T20:48:03.088Z,13.30
2017-12-13T20:50:34.401Z,13.30
2017-12-13T20:53:04.406Z,13.30
2017-12-13T20:55:33.178Z,13.30
2017-12-13T20:58:02.706Z,13.30
2017-12-13T21:00:32.492Z,13.30
2017-12-13T21:03:01.453Z,13.20
2017-12-13T21:05:31.379Z,13.20
2017-12-13T21:08:01.756Z,13.20
2017-12-13T21:10:30.400Z,13.20
2017-12-13T21:13:00.280Z,13.20
2017-12-13T21:15:30.280Z,13.20
2017-12-13T21:18:00.425Z,13.20
2017-12-13T21:20:30.277Z,13.20
2017-12-13T21:23:00.780Z,13.20
2017-12-13T21:25:30.879Z,13.20
2017-12-13T21:28:00.434Z,13.20
2017-12-13T21:30:30.987Z,13.20
2017-12-13T21:33:02.659Z,13.10
2017-12-13T21:35:32.633Z,13.10
2017-12-13T21:38:01.982Z,13.10
2017-12-13T21:40:31.595Z,13.10
2017-12-13T21:43:01.765Z,13.10
2017-12-13T21:45:30.615Z,13.10
2017-12-13T21:48:00.908Z,13.10
2017-12-13T21:50:29.922Z,13.10
2017-12-13T21:52:58.526Z,13.10
2017-12-13T21:55:28.437Z,13.10
2017-12-13T21:57:57.834Z,13.00
2017-12-13T22:00:28.784Z,13.00
2017-12-13T22:02:58.264Z,13.00
2017-12-13T22:05:28.045Z,13.00
2017-12-13T22:07:58.308Z,13.00
2017-12-13T22:10:28.330Z,13.00
2017-12-13T22:12:57.285Z,13.00
2017-12-13T22:15:28.168Z,13.00
2017-12-13T22:17:58.594Z,13.00
2017-12-13T22:20:29.198Z,13.00
2017-12-13T22:22:59.633Z,13.00
2017-12-13T22:25:29.068Z,13.00
2017-12-13T22:27:57.461Z,13.00
2017-12-13T22:30:27.185Z,13.00
2017-12-13T22:32:57.233Z,13.00
2017-12-13T22:35:26.907Z,13.00
2017-12-13T22:37:58.315Z,13.00
2017-12-13T22:40:28.370Z,13.00
2017-12-13T22:42:57.803Z,13.00
2017-12-13T22:45:28.031Z,13.00
2017-12-13T22:47:58.470Z,13.00
2017-12-13T22:50:28.422Z,13.00
2017-12-13T22:52:58.663Z,13.00
2017-12-13T22:55:27.134Z,13.00
2017-12-13T22:57:57.714Z,13.00
2017-12-13T23:00:39.491Z,13.00
2017-12-13T23:03:09.337Z,12.90
2017-12-13T23:05:39.392Z,12.90
2017-12-13T23:08:09.712Z,12.90
2017-12-13T23:10:40.182Z,12.90
2017-12-13T23:13:09.987Z,12.90
2017-12-13T23:15:41.053Z,12.90
2017-12-13T23:18:11.851Z,12.60
2017-12-13T23:20:41.100Z,12.60
2017-12-13T23:23:11.328Z,12.20
2017-12-13T23:25:40.451Z,12.40
2017-12-13T23:28:10.658Z,12.60
2017-12-13T23:30:39.287Z,12.60
2017-12-13T23:33:08.330Z,12.70
2017-12-13T23:35:37.274Z,12.80
2017-12-13T23:38:06.918Z,13.00
2017-12-13T23:40:36.302Z,13.00
2017-12-13T23:43:05.483Z,13.00
2017-12-13T23:45:34.628Z,13.10
2017-12-13T23:48:03.683Z,13.10
2017-12-13T23:50:32.727Z,13.10
2017-12-13T23:53:02.071Z,13.10
2017-12-13T23:55:30.932Z,13.10
2017-12-13T23:57:59.951Z,13.10
